Terminal Aerodrome Forecast
Issued by NWS Corpus Christi, TX

Home | Current Version | Previous Version | Text Only | Print | Product List | Glossary On
Versions: 1 2 3 4 5 6 7 8 9 10 11 12 13
000
FTUS44 KCRP 291127
TAFVCT
TAF
KVCT 291127Z 2912/3012 VRB03KT 2SM BR BKN016
      TEMPO 2912/2913 1/2SM FG OVC015
     FM291400 16006KT P6SM BKN025
     FM291800 15010G18KT P6SM SCT035
     FM300200 13007KT P6SM SCT015
     FM300800 17003KT 3SM BR SCT001 BKN040
      TEMPO 3010/3012 1SM BR=

USA.gov is the U.S. government's official web portal to all federal, state and local government web resources and services.